sensor_id;sensor_type;location;lat;lon;timestamp;pressure;altitude;pressure_sealevel;temperature;humidity
24610;BME280;12758;47.890;11.694;2022-08-18T00:00:26;93569.22;;;21.54;67.18
24610;BME280;12758;47.890;11.694;2022-08-18T00:02:52;93565.06;;;21.17;69.41
24610;BME280;12758;47.890;11.694;2022-08-18T00:05:18;93544.47;;;22.37;64.00
24610;BME280;12758;47.890;11.694;2022-08-18T00:07:45;93554.09;;;21.69;66.92
24610;BME280;12758;47.890;11.694;2022-08-18T00:10:11;93545.34;;;21.81;65.89
24610;BME280;12758;47.890;11.694;2022-08-18T00:12:39;93551.25;;;21.83;66.39
24610;BME280;12758;47.890;11.694;2022-08-18T00:15:08;93559.25;;;22.95;60.95
24610;BME280;12758;47.890;11.694;2022-08-18T00:17:35;93561.06;;;22.74;62.56
24610;BME280;12758;47.890;11.694;2022-08-18T00:20:03;93553.88;;;23.15;60.77
24610;BME280;12758;47.890;11.694;2022-08-18T00:22:29;93567.09;;;22.24;64.53
24610;BME280;12758;47.890;11.694;2022-08-18T00:24:56;93565.25;;;22.07;65.26
24610;BME280;12758;47.890;11.694;2022-08-18T00:27:24;93564.88;;;21.53;67.23
24610;BME280;12758;47.890;11.694;2022-08-18T00:29:51;93564.88;;;22.05;65.62
24610;BME280;12758;47.890;11.694;2022-08-18T00:32:21;93569.09;;;22.62;63.03
24610;BME280;12758;47.890;11.694;2022-08-18T00:34:47;93569.13;;;23.27;59.64
24610;BME280;12758;47.890;11.694;2022-08-18T00:37:13;93580.91;;;23.34;59.91
24610;BME280;12758;47.890;11.694;2022-08-18T00:39:39;93571.72;;;23.10;60.87
24610;BME280;12758;47.890;11.694;2022-08-18T00:42:13;93562.41;;;22.14;65.06
24610;BME280;12758;47.890;11.694;2022-08-18T00:44:39;93575.56;;;22.48;63.40
24610;BME280;12758;47.890;11.694;2022-08-18T00:47:06;93567.28;;;22.48;63.52
24610;BME280;12758;47.890;11.694;2022-08-18T00:49:33;93570.34;;;22.57;63.22
24610;BME280;12758;47.890;11.694;2022-08-18T00:51:59;93577.31;;;23.07;60.81
24610;BME280;12758;47.890;11.694;2022-08-18T00:54:27;93572.03;;;23.16;60.10
24610;BME280;12758;47.890;11.694;2022-08-18T00:56:57;93581.41;;;23.25;60.44
24610;BME280;12758;47.890;11.694;2022-08-18T00:59:27;93589.34;;;23.54;58.33
24610;BME280;12758;47.890;11.694;2022-08-18T01:01:54;93589.97;;;22.66;62.57
24610;BME280;12758;47.890;11.694;2022-08-18T01:04:28;93586.09;;;22.98;60.83
24610;BME280;12758;47.890;11.694;2022-08-18T01:06:59;93583.06;;;23.19;60.05
24610;BME280;12758;47.890;11.694;2022-08-18T01:09:26;93584.53;;;23.58;57.96
24610;BME280;12758;47.890;11.694;2022-08-18T01:11:53;93593.84;;;23.71;58.04
24610;BME280;12758;47.890;11.694;2022-08-18T01:14:19;93595.22;;;23.87;57.08
24610;BME280;12758;47.890;11.694;2022-08-18T01:16:45;93590.94;;;23.52;58.40
24610;BME280;12758;47.890;11.694;2022-08-18T01:19:30;93586.78;;;23.09;60.71
24610;BME280;12758;47.890;11.694;2022-08-18T01:22:16;93584.28;;;23.18;59.59
24610;BME280;12758;47.890;11.694;2022-08-18T01:24:44;93569.66;;;23.18;59.78
24610;BME280;12758;47.890;11.694;2022-08-18T01:27:29;93573.72;;;23.10;60.32
24610;BME280;12758;47.890;11.694;2022-08-18T01:29:56;93584.00;;;23.09;59.83
24610;BME280;12758;47.890;11.694;2022-08-18T01:32:23;93576.31;;;23.20;59.56
24610;BME280;12758;47.890;11.694;2022-08-18T01:34:50;93570.25;;;23.02;60.00
24610;BME280;12758;47.890;11.694;2022-08-18T01:37:18;93552.66;;;22.82;61.40
24610;BME280;12758;47.890;11.694;2022-08-18T01:39:53;93541.00;;;22.29;62.90
24610;BME280;12758;47.890;11.694;2022-08-18T01:42:20;93552.53;;;22.58;62.04
24610;BME280;12758;47.890;11.694;2022-08-18T01:44:47;93554.00;;;22.66;61.43
24610;BME280;12758;47.890;11.694;2022-08-18T01:47:15;93540.94;;;22.32;62.65
24610;BME280;12758;47.890;11.694;2022-08-18T01:49:43;93541.06;;;22.18;63.51
24610;BME280;12758;47.890;11.694;2022-08-18T01:52:10;93548.78;;;22.41;62.48
24610;BME280;12758;47.890;11.694;2022-08-18T01:54:40;93541.72;;;22.71;61.13
24610;BME280;12758;47.890;11.694;2022-08-18T01:57:08;93548.25;;;22.88;60.40
24610;BME280;12758;47.890;11.694;2022-08-18T01:59:39;93540.25;;;22.97;60.12
24610;BME280;12758;47.890;11.694;2022-08-18T02:02:05;93537.75;;;23.06;59.66
24610;BME280;12758;47.890;11.694;2022-08-18T02:04:31;93538.91;;;22.74;60.71
24610;BME280;12758;47.890;11.694;2022-08-18T02:06:58;93530.16;;;22.79;60.60
24610;BME280;12758;47.890;11.694;2022-08-18T02:09:25;93531.38;;;23.09;59.45
24610;BME280;12758;47.890;11.694;2022-08-18T02:11:51;93533.66;;;23.18;59.33
24610;BME280;12758;47.890;11.694;2022-08-18T02:14:18;93526.19;;;23.11;59.51
24610;BME280;12758;47.890;11.694;2022-08-18T02:16:44;93532.56;;;22.77;60.39
24610;BME280;12758;47.890;11.694;2022-08-18T02:19:10;93537.25;;;22.81;60.47
24610;BME280;12758;47.890;11.694;2022-08-18T02:21:37;93536.72;;;23.23;59.17
24610;BME280;12758;47.890;11.694;2022-08-18T02:24:03;93526.66;;;23.37;58.59
24610;BME280;12758;47.890;11.694;2022-08-18T02:26:30;93530.31;;;21.82;64.04
24610;BME280;12758;47.890;11.694;2022-08-18T02:28:56;93526.38;;;20.33;70.36
24610;BME280;12758;47.890;11.694;2022-08-18T02:31:24;93531.97;;;19.86;74.09
24610;BME280;12758;47.890;11.694;2022-08-18T02:33:50;93534.25;;;20.27;71.89
24610;BME280;12758;47.890;11.694;2022-08-18T02:36:17;93530.00;;;19.62;74.07
24610;BME280;12758;47.890;11.694;2022-08-18T02:38:43;93524.81;;;20.35;71.85
24610;BME280;12758;47.890;11.694;2022-08-18T02:41:10;93518.38;;;20.74;68.10
24610;BME280;12758;47.890;11.694;2022-08-18T02:43:37;93521.72;;;19.97;72.73
24610;BME280;12758;47.890;11.694;2022-08-18T02:46:05;93516.06;;;20.62;70.48
24610;BME280;12758;47.890;11.694;2022-08-18T02:48:32;93508.91;;;21.49;65.93
24610;BME280;12758;47.890;11.694;2022-08-18T02:51:00;93516.38;;;21.97;63.33
24610;BME280;12758;47.890;11.694;2022-08-18T02:53:27;93509.28;;;22.41;62.31
24610;BME280;12758;47.890;11.694;2022-08-18T02:55:53;93504.78;;;22.85;60.25
24610;BME280;12758;47.890;11.694;2022-08-18T02:58:19;93513.56;;;23.10;59.50
24610;BME280;12758;47.890;11.694;2022-08-18T03:00:45;93516.16;;;23.24;58.51
24610;BME280;12758;47.890;11.694;2022-08-18T03:03:11;93512.13;;;23.02;58.95
24610;BME280;12758;47.890;11.694;2022-08-18T03:05:38;93495.66;;;22.53;60.95
24610;BME280;12758;47.890;11.694;2022-08-18T03:08:04;93499.78;;;23.07;59.21
24610;BME280;12758;47.890;11.694;2022-08-18T03:10:30;93497.50;;;23.29;58.50
24610;BME280;12758;47.890;11.694;2022-08-18T03:12:56;93494.88;;;23.45;57.75
24610;BME280;12758;47.890;11.694;2022-08-18T03:15:22;93492.75;;;23.53;57.74
24610;BME280;12758;47.890;11.694;2022-08-18T03:17:48;93487.72;;;23.47;57.45
24610;BME280;12758;47.890;11.694;2022-08-18T03:20:16;93482.78;;;23.59;56.93
24610;BME280;12758;47.890;11.694;2022-08-18T03:22:42;93492.22;;;23.38;57.12
24610;BME280;12758;47.890;11.694;2022-08-18T03:25:08;93501.09;;;23.25;58.00
24610;BME280;12758;47.890;11.694;2022-08-18T03:27:34;93496.13;;;23.13;58.56
24610;BME280;12758;47.890;11.694;2022-08-18T03:30:00;93473.03;;;22.31;60.88
24610;BME280;12758;47.890;11.694;2022-08-18T03:32:27;93470.34;;;21.79;63.97
24610;BME280;12758;47.890;11.694;2022-08-18T03:34:53;93486.72;;;22.01;62.73
24610;BME280;12758;47.890;11.694;2022-08-18T03:37:19;93483.75;;;22.60;60.32
24610;BME280;12758;47.890;11.694;2022-08-18T03:39:46;93491.94;;;23.01;59.04
24610;BME280;12758;47.890;11.694;2022-08-18T03:42:12;93491.84;;;23.09;58.48
24610;BME280;12758;47.890;11.694;2022-08-18T03:44:38;93478.22;;;23.21;57.97
24610;BME280;12758;47.890;11.694;2022-08-18T03:47:06;93460.16;;;22.83;59.58
24610;BME280;12758;47.890;11.694;2022-08-18T03:49:32;93453.28;;;23.21;58.01
24610;BME280;12758;47.890;11.694;2022-08-18T03:51:59;93471.72;;;23.32;57.52
24610;BME280;12758;47.890;11.694;2022-08-18T03:54:25;93477.16;;;23.39;57.43
24610;BME280;12758;47.890;11.694;2022-08-18T03:56:51;93473.09;;;23.47;56.85
24610;BME280;12758;47.890;11.694;2022-08-18T03:59:22;93461.16;;;23.50;56.93
24610;BME280;12758;47.890;11.694;2022-08-18T04:01:51;93466.25;;;23.28;56.85
24610;BME280;12758;47.890;11.694;2022-08-18T04:04:23;93464.91;;;23.36;57.19
24610;BME280;12758;47.890;11.694;2022-08-18T04:06:51;93458.13;;;23.41;57.37
24610;BME280;12758;47.890;11.694;2022-08-18T04:09:19;93457.31;;;23.44;56.94
24610;BME280;12758;47.890;11.694;2022-08-18T04:11:46;93456.47;;;23.47;56.55
24610;BME280;12758;47.890;11.694;2022-08-18T04:14:14;93456.50;;;23.43;56.66
24610;BME280;12758;47.890;11.694;2022-08-18T04:16:41;93443.06;;;23.42;56.65
24610;BME280;12758;47.890;11.694;2022-08-18T04:19:07;93444.22;;;23.44;56.78
24610;BME280;12758;47.890;11.694;2022-08-18T04:21:36;93430.19;;;23.32;56.26
24610;BME280;12758;47.890;11.694;2022-08-18T04:24:03;93429.53;;;23.47;56.54
24610;BME280;12758;47.890;11.694;2022-08-18T04:26:30;93413.31;;;23.46;56.39
24610;BME280;12758;47.890;11.694;2022-08-18T04:28:56;93411.28;;;23.50;56.20
24610;BME280;12758;47.890;11.694;2022-08-18T04:31:26;93409.25;;;23.31;56.92
24610;BME280;12758;47.890;11.694;2022-08-18T04:33:54;93424.16;;;23.37;56.80
24610;BME280;12758;47.890;11.694;2022-08-18T04:36:21;93424.13;;;23.40;56.33
24610;BME280;12758;47.890;11.694;2022-08-18T04:38:47;93420.06;;;23.45;56.39
24610;BME280;12758;47.890;11.694;2022-08-18T04:41:13;93410.91;;;23.48;56.55
24610;BME280;12758;47.890;11.694;2022-08-18T04:43:40;93415.72;;;23.20;56.21
24610;BME280;12758;47.890;11.694;2022-08-18T04:46:06;93420.75;;;23.02;57.56
24610;BME280;12758;47.890;11.694;2022-08-18T04:48:34;93428.38;;;23.21;56.99
24610;BME280;12758;47.890;11.694;2022-08-18T04:51:05;93433.00;;;23.28;56.84
24610;BME280;12758;47.890;11.694;2022-08-18T04:53:31;93446.38;;;23.33;56.71
24610;BME280;12758;47.890;11.694;2022-08-18T04:56:13;93458.34;;;23.27;56.74
24610;BME280;12758;47.890;11.694;2022-08-18T04:58:39;93460.66;;;23.32;56.64
24610;BME280;12758;47.890;11.694;2022-08-18T05:01:05;93453.59;;;23.27;56.60
24610;BME280;12758;47.890;11.694;2022-08-18T05:03:31;93453.56;;;23.31;56.57
24610;BME280;12758;47.890;11.694;2022-08-18T05:05:58;93457.78;;;22.16;61.24
24610;BME280;12758;47.890;11.694;2022-08-18T05:08:24;93463.25;;;21.78;62.49
24610;BME280;12758;47.890;11.694;2022-08-18T05:10:52;93474.50;;;22.40;59.93
24610;BME280;12758;47.890;11.694;2022-08-18T05:13:18;93482.75;;;22.77;58.43
24610;BME280;12758;47.890;11.694;2022-08-18T05:15:45;93484.13;;;22.93;58.21
24610;BME280;12758;47.890;11.694;2022-08-18T05:18:16;93480.91;;;22.98;57.70
24610;BME280;12758;47.890;11.694;2022-08-18T05:20:44;93477.09;;;22.85;58.02
24610;BME280;12758;47.890;11.694;2022-08-18T05:23:11;93476.19;;;22.95;57.77
24610;BME280;12758;47.890;11.694;2022-08-18T05:25:37;93484.63;;;22.84;58.40
24610;BME280;12758;47.890;11.694;2022-08-18T05:28:04;93492.19;;;22.80;58.68
24610;BME280;12758;47.890;11.694;2022-08-18T05:30:30;93497.69;;;22.84;58.59
24610;BME280;12758;47.890;11.694;2022-08-18T05:32:56;93500.66;;;23.00;57.96
24610;BME280;12758;47.890;11.694;2022-08-18T05:35:33;93505.47;;;22.96;58.45
24610;BME280;12758;47.890;11.694;2022-08-18T05:38:14;93506.69;;;21.22;66.48
24610;BME280;12758;47.890;11.694;2022-08-18T05:40:44;93508.25;;;20.28;70.62
24610;BME280;12758;47.890;11.694;2022-08-18T05:43:10;93512.03;;;20.81;68.27
24610;BME280;12758;47.890;11.694;2022-08-18T05:45:38;93504.50;;;20.88;68.33
24610;BME280;12758;47.890;11.694;2022-08-18T05:48:04;93505.91;;;20.16;71.35
24610;BME280;12758;47.890;11.694;2022-08-18T05:50:31;93515.41;;;20.08;72.01
24610;BME280;12758;47.890;11.694;2022-08-18T05:53:04;93517.22;;;20.61;69.89
24610;BME280;12758;47.890;11.694;2022-08-18T05:55:34;93518.34;;;20.81;68.25
24610;BME280;12758;47.890;11.694;2022-08-18T05:58:22;93526.72;;;20.53;70.74
24610;BME280;12758;47.890;11.694;2022-08-18T06:00:51;93531.53;;;21.18;66.44
24610;BME280;12758;47.890;11.694;2022-08-18T06:03:21;93524.56;;;21.00;67.27
24610;BME280;12758;47.890;11.694;2022-08-18T06:05:52;93539.81;;;19.77;72.99
24610;BME280;12758;47.890;11.694;2022-08-18T06:08:23;93535.91;;;19.82;73.84
24610;BME280;12758;47.890;11.694;2022-08-18T06:10:52;93531.19;;;19.68;74.27
24610;BME280;12758;47.890;11.694;2022-08-18T06:13:19;93530.38;;;19.60;74.85
24610;BME280;12758;47.890;11.694;2022-08-18T06:15:49;93522.09;;;20.10;72.05
24610;BME280;12758;47.890;11.694;2022-08-18T06:18:28;93538.25;;;19.97;73.62
24610;BME280;12758;47.890;11.694;2022-08-18T06:23:48;93530.19;;;20.78;68.79
24610;BME280;12758;47.890;11.694;2022-08-18T06:26:19;93521.66;;;20.30;70.96
24610;BME280;12758;47.890;11.694;2022-08-18T06:28:56;93516.09;;;20.58;69.85
24610;BME280;12758;47.890;11.694;2022-08-18T06:31:30;93511.94;;;20.99;67.23
24610;BME280;12758;47.890;11.694;2022-08-18T06:34:02;93506.84;;;20.93;67.59
24610;BME280;12758;47.890;11.694;2022-08-18T06:36:38;93508.34;;;19.92;71.99
24610;BME280;12758;47.890;11.694;2022-08-18T06:39:14;93514.59;;;19.07;76.25
24610;BME280;12758;47.890;11.694;2022-08-18T06:41:48;93511.47;;;19.23;76.91
24610;BME280;12758;47.890;11.694;2022-08-18T06:44:18;93507.94;;;19.40;75.85
24610;BME280;12758;47.890;11.694;2022-08-18T06:46:48;93511.47;;;19.23;76.38
24610;BME280;12758;47.890;11.694;2022-08-18T06:49:23;93513.84;;;19.49;75.46
24610;BME280;12758;47.890;11.694;2022-08-18T06:51:52;93515.41;;;19.22;76.86
24610;BME280;12758;47.890;11.694;2022-08-18T06:54:27;93527.88;;;18.80;78.59
24610;BME280;12758;47.890;11.694;2022-08-18T06:56:55;93534.09;;;18.70;79.35
24610;BME280;12758;47.890;11.694;2022-08-18T06:59:24;93534.16;;;18.80;79.82
24610;BME280;12758;47.890;11.694;2022-08-18T07:01:52;93538.13;;;18.90;78.97
24610;BME280;12758;47.890;11.694;2022-08-18T07:04:39;93527.88;;;18.83;79.14
24610;BME280;12758;47.890;11.694;2022-08-18T07:07:28;93532.25;;;18.88;79.45
24610;BME280;12758;47.890;11.694;2022-08-18T07:09:54;93527.88;;;18.80;80.23
24610;BME280;12758;47.890;11.694;2022-08-18T07:12:24;93536.06;;;18.62;80.88
24610;BME280;12758;47.890;11.694;2022-08-18T07:14:53;93530.09;;;18.49;81.38
24610;BME280;12758;47.890;11.694;2022-08-18T07:17:22;93537.16;;;18.50;81.93
24610;BME280;12758;47.890;11.694;2022-08-18T07:19:58;93534.03;;;18.55;81.57
24610;BME280;12758;47.890;11.694;2022-08-18T07:22:24;93520.28;;;18.48;81.60
24610;BME280;12758;47.890;11.694;2022-08-18T07:24:52;93524.97;;;18.44;81.64
24610;BME280;12758;47.890;11.694;2022-08-18T07:27:21;93532.88;;;18.60;81.67
24610;BME280;12758;47.890;11.694;2022-08-18T07:30:03;93533.78;;;18.78;81.14
24610;BME280;12758;47.890;11.694;2022-08-18T07:32:32;93532.19;;;18.81;80.58
24610;BME280;12758;47.890;11.694;2022-08-18T07:35:01;93523.66;;;19.22;79.25
24610;BME280;12758;47.890;11.694;2022-08-18T07:37:30;93520.91;;;19.15;78.84
24610;BME280;12758;47.890;11.694;2022-08-18T07:40:00;93515.81;;;19.31;77.93
24610;BME280;12758;47.890;11.694;2022-08-18T07:42:31;93512.28;;;19.52;77.99
24610;BME280;12758;47.890;11.694;2022-08-18T07:45:01;93511.53;;;19.66;77.61
24610;BME280;12758;47.890;11.694;2022-08-18T07:47:33;93516.22;;;19.90;75.60
24610;BME280;12758;47.890;11.694;2022-08-18T07:50:04;93512.16;;;20.41;72.81
24610;BME280;12758;47.890;11.694;2022-08-18T07:52:36;93518.38;;;20.74;70.81
24610;BME280;12758;47.890;11.694;2022-08-18T07:55:06;93518.44;;;20.56;72.14
24610;BME280;12758;47.890;11.694;2022-08-18T07:57:43;93515.94;;;20.83;70.89
24610;BME280;12758;47.890;11.694;2022-08-18T08:00:18;93517.41;;;21.06;69.15
24610;BME280;12758;47.890;11.694;2022-08-18T08:02:51;93515.00;;;21.15;69.29
24610;BME280;12758;47.890;11.694;2022-08-18T08:05:20;93508.81;;;20.97;69.20
24610;BME280;12758;47.890;11.694;2022-08-18T08:07:54;93497.97;;;21.79;65.40
24610;BME280;12758;47.890;11.694;2022-08-18T08:10:27;93493.88;;;21.50;66.60
24610;BME280;12758;47.890;11.694;2022-08-18T08:12:57;93499.56;;;21.80;65.30
24610;BME280;12758;47.890;11.694;2022-08-18T08:15:33;93486.94;;;22.21;63.32
24610;BME280;12758;47.890;11.694;2022-08-18T08:18:03;93481.03;;;22.22;63.93
24610;BME280;12758;47.890;11.694;2022-08-18T08:20:38;93482.72;;;22.09;63.86
24610;BME280;12758;47.890;11.694;2022-08-18T08:23:10;93479.38;;;21.31;66.99
24610;BME280;12758;47.890;11.694;2022-08-18T08:25:48;93479.75;;;20.74;69.91
24610;BME280;12758;47.890;11.694;2022-08-18T08:28:20;93479.50;;;21.17;68.34
24610;BME280;12758;47.890;11.694;2022-08-18T08:30:54;93491.81;;;21.02;69.31
24610;BME280;12758;47.890;11.694;2022-08-18T08:33:29;93486.75;;;20.97;69.95
24610;BME280;12758;47.890;11.694;2022-08-18T08:36:00;93494.53;;;21.09;70.16
24610;BME280;12758;47.890;11.694;2022-08-18T08:38:34;93485.09;;;21.06;69.76
24610;BME280;12758;47.890;11.694;2022-08-18T08:41:07;93488.94;;;21.20;68.37
24610;BME280;12758;47.890;11.694;2022-08-18T08:43:36;93481.84;;;21.22;67.60
24610;BME280;12758;47.890;11.694;2022-08-18T08:46:08;93485.72;;;21.28;68.20
24610;BME280;12758;47.890;11.694;2022-08-18T08:48:38;93476.97;;;21.48;67.71
24610;BME280;12758;47.890;11.694;2022-08-18T08:51:13;93467.25;;;21.18;68.50
24610;BME280;12758;47.890;11.694;2022-08-18T08:53:43;93459.81;;;21.11;68.29
24610;BME280;12758;47.890;11.694;2022-08-18T08:56:13;93450.75;;;21.63;66.02
24610;BME280;12758;47.890;11.694;2022-08-18T08:58:43;93443.41;;;21.91;65.07
24610;BME280;12758;47.890;11.694;2022-08-18T09:01:15;93445.91;;;22.19;64.51
24610;BME280;12758;47.890;11.694;2022-08-18T09:03:47;93450.50;;;21.92;66.83
24610;BME280;12758;47.890;11.694;2022-08-18T09:06:20;93449.31;;;21.93;65.09
24610;BME280;12758;47.890;11.694;2022-08-18T09:08:57;93439.00;;;21.97;65.72
24610;BME280;12758;47.890;11.694;2022-08-18T09:11:37;93448.94;;;21.91;65.28
24610;BME280;12758;47.890;11.694;2022-08-18T09:14:22;93445.94;;;21.74;65.86
24610;BME280;12758;47.890;11.694;2022-08-18T09:17:05;93445.94;;;21.74;66.34
24610;BME280;12758;47.890;11.694;2022-08-18T09:19:49;93451.09;;;22.10;64.01
24610;BME280;12758;47.890;11.694;2022-08-18T09:22:24;93441.53;;;22.18;63.82
24610;BME280;12758;47.890;11.694;2022-08-18T09:24:55;93431.53;;;21.94;66.48
24610;BME280;12758;47.890;11.694;2022-08-18T09:27:31;93451.38;;;21.81;66.58
24610;BME280;12758;47.890;11.694;2022-08-18T09:30:01;93457.84;;;21.68;65.62
24610;BME280;12758;47.890;11.694;2022-08-18T09:32:54;93438.66;;;21.91;64.65
24610;BME280;12758;47.890;11.694;2022-08-18T09:35:35;93433.78;;;22.06;64.46
24610;BME280;12758;47.890;11.694;2022-08-18T09:38:08;93431.16;;;22.29;63.81
24610;BME280;12758;47.890;11.694;2022-08-18T09:41:06;93435.66;;;22.16;62.91
24610;BME280;12758;47.890;11.694;2022-08-18T09:43:55;93441.50;;;22.25;63.86
24610;BME280;12758;47.890;11.694;2022-08-18T09:46:52;93438.88;;;22.45;64.18
24610;BME280;12758;47.890;11.694;2022-08-18T09:49:43;93432.41;;;22.55;63.25
24610;BME280;12758;47.890;11.694;2022-08-18T09:52:45;93443.47;;;22.55;63.99
24610;BME280;12758;47.890;11.694;2022-08-18T09:55:39;93448.69;;;22.50;64.38
24610;BME280;12758;47.890;11.694;2022-08-18T09:58:17;93448.25;;;22.55;63.17
24610;BME280;12758;47.890;11.694;2022-08-18T10:00:44;93453.94;;;22.71;64.10
24610;BME280;12758;47.890;11.694;2022-08-18T10:03:21;93454.78;;;22.34;63.93
24610;BME280;12758;47.890;11.694;2022-08-18T10:06:11;93454.84;;;22.30;64.17
24610;BME280;12758;47.890;11.694;2022-08-18T10:08:53;93453.03;;;22.13;65.12
24610;BME280;12758;47.890;11.694;2022-08-18T10:11:40;93466.81;;;22.20;65.13
24610;BME280;12758;47.890;11.694;2022-08-18T10:14:24;93468.88;;;22.47;64.67
24610;BME280;12758;47.890;11.694;2022-08-18T10:16:57;93471.88;;;22.60;63.17
24610;BME280;12758;47.890;11.694;2022-08-18T10:19:29;93461.44;;;22.74;62.06
24610;BME280;12758;47.890;11.694;2022-08-18T10:22:02;93455.75;;;22.85;62.12
24610;BME280;12758;47.890;11.694;2022-08-18T10:24:30;93449.72;;;22.94;61.52
24610;BME280;12758;47.890;11.694;2022-08-18T10:26:59;93457.09;;;23.04;62.01
24610;BME280;12758;47.890;11.694;2022-08-18T10:29:53;93461.53;;;22.98;61.48
24610;BME280;12758;47.890;11.694;2022-08-18T10:32:41;93450.25;;;23.12;59.88
24610;BME280;12758;47.890;11.694;2022-08-18T10:41:18;93427.63;;;23.17;60.20
24610;BME280;12758;47.890;11.694;2022-08-18T10:43:48;93423.56;;;23.25;60.21
24610;BME280;12758;47.890;11.694;2022-08-18T10:46:17;93428.84;;;23.40;61.67
24610;BME280;12758;47.890;11.694;2022-08-18T10:48:56;93428.38;;;23.45;61.44
24610;BME280;12758;47.890;11.694;2022-08-18T10:51:25;93443.47;;;23.17;62.17
24610;BME280;12758;47.890;11.694;2022-08-18T10:53:57;93446.84;;;23.01;62.17
24610;BME280;12758;47.890;11.694;2022-08-18T10:56:28;93444.56;;;22.96;61.81
24610;BME280;12758;47.890;11.694;2022-08-18T10:59:02;93446.97;;;22.94;61.76
24610;BME280;12758;47.890;11.694;2022-08-18T11:01:47;93427.97;;;22.92;61.83
24610;BME280;12758;47.890;11.694;2022-08-18T11:04:26;93428.09;;;23.12;62.27
24610;BME280;12758;47.890;11.694;2022-08-18T11:07:07;93421.50;;;23.30;60.02
24610;BME280;12758;47.890;11.694;2022-08-18T11:09:35;93421.28;;;23.44;59.61
24610;BME280;12758;47.890;11.694;2022-08-18T11:12:02;93415.09;;;23.60;60.21
24610;BME280;12758;47.890;11.694;2022-08-18T11:14:49;93397.63;;;23.63;59.41
24610;BME280;12758;47.890;11.694;2022-08-18T11:17:22;93396.75;;;23.69;59.42
24610;BME280;12758;47.890;11.694;2022-08-18T11:19:48;93376.34;;;23.80;59.23
24610;BME280;12758;47.890;11.694;2022-08-18T11:22:23;93368.03;;;23.80;58.21
24610;BME280;12758;47.890;11.694;2022-08-18T11:24:50;93360.72;;;23.89;60.35
24610;BME280;12758;47.890;11.694;2022-08-18T11:27:19;93361.78;;;23.76;59.70
24610;BME280;12758;47.890;11.694;2022-08-18T11:29:45;93354.31;;;23.73;59.08
24610;BME280;12758;47.890;11.694;2022-08-18T11:32:15;93350.69;;;23.76;60.63
24610;BME280;12758;47.890;11.694;2022-08-18T11:34:45;93355.31;;;23.82;58.88
24610;BME280;12758;47.890;11.694;2022-08-18T11:37:21;93352.13;;;23.84;59.33
24610;BME280;12758;47.890;11.694;2022-08-18T11:39:49;93327.22;;;24.00;59.96
24610;BME280;12758;47.890;11.694;2022-08-18T11:42:17;93314.44;;;24.06;58.56
24610;BME280;12758;47.890;11.694;2022-08-18T11:44:45;93313.50;;;24.13;57.56
24610;BME280;12758;47.890;11.694;2022-08-18T11:47:13;93300.78;;;24.15;57.20
24610;BME280;12758;47.890;11.694;2022-08-18T11:49:53;93292.81;;;24.17;56.82
24610;BME280;12758;47.890;11.694;2022-08-18T11:52:23;93289.31;;;24.13;56.76
24610;BME280;12758;47.890;11.694;2022-08-18T11:54:50;93280.28;;;24.29;57.42
24610;BME280;12758;47.890;11.694;2022-08-18T11:57:48;93294.38;;;24.18;56.58
24610;BME280;12758;47.890;11.694;2022-08-18T12:00:55;93314.69;;;24.32;56.79
24610;BME280;12758;47.890;11.694;2022-08-18T12:03:33;93315.00;;;24.17;57.06
24610;BME280;12758;47.890;11.694;2022-08-18T12:06:10;93320.69;;;24.10;57.17
24610;BME280;12758;47.890;11.694;2022-08-18T12:08:50;93318.44;;;24.05;57.67
24610;BME280;12758;47.890;11.694;2022-08-18T12:11:19;93308.97;;;24.03;57.19
24610;BME280;12758;47.890;11.694;2022-08-18T12:13:47;93311.81;;;23.99;57.30
24610;BME280;12758;47.890;11.694;2022-08-18T12:16:31;93308.19;;;24.02;57.31
24610;BME280;12758;47.890;11.694;2022-08-18T12:19:00;93283.97;;;24.23;57.06
24610;BME280;12758;47.890;11.694;2022-08-18T12:21:26;93278.88;;;24.41;56.98
24610;BME280;12758;47.890;11.694;2022-08-18T12:23:53;93273.75;;;24.20;57.36
24610;BME280;12758;47.890;11.694;2022-08-18T12:26:19;93283.69;;;24.17;57.29
24610;BME280;12758;47.890;11.694;2022-08-18T12:28:45;93287.97;;;24.22;59.34
24610;BME280;12758;47.890;11.694;2022-08-18T12:31:11;93304.78;;;24.14;57.24
24610;BME280;12758;47.890;11.694;2022-08-18T12:33:37;93303.19;;;24.13;57.61
24610;BME280;12758;47.890;11.694;2022-08-18T12:36:04;93309.97;;;24.12;57.94
24610;BME280;12758;47.890;11.694;2022-08-18T12:38:30;93321.06;;;24.12;57.18
24610;BME280;12758;47.890;11.694;2022-08-18T12:40:57;93330.84;;;24.17;57.93
24610;BME280;12758;47.890;11.694;2022-08-18T12:43:23;93336.34;;;24.21;57.86
24610;BME280;12758;47.890;11.694;2022-08-18T12:45:50;93329.91;;;24.24;57.47
24610;BME280;12758;47.890;11.694;2022-08-18T12:48:17;93321.09;;;24.29;57.43
24610;BME280;12758;47.890;11.694;2022-08-18T12:50:43;93329.72;;;24.34;58.62
24610;BME280;12758;47.890;11.694;2022-08-18T12:53:10;93322.41;;;24.24;56.95
24610;BME280;12758;47.890;11.694;2022-08-18T12:55:39;93301.41;;;24.23;57.23
24610;BME280;12758;47.890;11.694;2022-08-18T12:58:06;93287.97;;;24.22;57.62
24610;BME280;12758;47.890;11.694;2022-08-18T13:00:32;93280.16;;;24.16;58.00
24610;BME280;12758;47.890;11.694;2022-08-18T13:03:00;93269.41;;;24.18;57.93
24610;BME280;12758;47.890;11.694;2022-08-18T13:05:26;93265.44;;;24.20;57.29
24610;BME280;12758;47.890;11.694;2022-08-18T13:07:53;93259.53;;;24.17;57.20
24610;BME280;12758;47.890;11.694;2022-08-18T13:10:19;93261.59;;;24.13;57.84
24610;BME280;12758;47.890;11.694;2022-08-18T13:12:45;93258.81;;;24.13;58.41
24610;BME280;12758;47.890;11.694;2022-08-18T13:15:11;93268.28;;;24.16;57.81
24610;BME280;12758;47.890;11.694;2022-08-18T13:17:37;93276.19;;;24.17;58.06